sensor_id;sensor_type;location;lat;lon;timestamp;P1;durP1;ratioP1;P2;durP2;ratioP2
48897;SDS011;34713;50.038;20.000;2023-07-29T00:00:42;7.00;;;2.90;;
48897;SDS011;34713;50.038;20.000;2023-07-29T00:03:47;5.40;;;2.70;;
48897;SDS011;34713;50.038;20.000;2023-07-29T00:06:44;5.10;;;2.80;;
48897;SDS011;34713;50.038;20.000;2023-07-29T00:12:28;3.90;;;2.60;;
48897;SDS011;34713;50.038;20.000;2023-07-29T00:14:58;5.50;;;3.40;;
48897;SDS011;34713;50.038;20.000;2023-07-29T00:17:34;4.70;;;3.10;;
48897;SDS011;34713;50.038;20.000;2023-07-29T00:20:00;7.70;;;3.20;;
48897;SDS011;34713;50.038;20.000;2023-07-29T00:22:30;4.50;;;3.00;;
48897;SDS011;34713;50.038;20.000;2023-07-29T00:24:56;6.60;;;3.40;;
48897;SDS011;34713;50.038;20.000;2023-07-29T00:30:21;4.90;;;3.00;;
48897;SDS011;34713;50.038;20.000;2023-07-29T00:33:19;8.70;;;3.40;;
48897;SDS011;34713;50.038;20.000;2023-07-29T00:36:06;6.10;;;3.40;;
48897;SDS011;34713;50.038;20.000;2023-07-29T00:38:57;8.00;;;3.50;;
48897;SDS011;34713;50.038;20.000;2023-07-29T00:41:26;4.70;;;3.20;;
48897;SDS011;34713;50.038;20.000;2023-07-29T00:43:56;8.10;;;3.50;;
48897;SDS011;34713;50.038;20.000;2023-07-29T00:46:53;6.40;;;3.80;;
48897;SDS011;34713;50.038;20.000;2023-07-29T00:52:50;4.80;;;3.20;;
48897;SDS011;34713;50.038;20.000;2023-07-29T00:58:00;5.50;;;3.10;;
48897;SDS011;34713;50.038;20.000;2023-07-29T01:00:37;6.30;;;3.70;;
48897;SDS011;34713;50.038;20.000;2023-07-29T01:03:34;5.20;;;3.20;;
48897;SDS011;34713;50.038;20.000;2023-07-29T01:08:46;7.00;;;3.30;;
48897;SDS011;34713;50.038;20.000;2023-07-29T01:11:57;4.60;;;3.20;;
48897;SDS011;34713;50.038;20.000;2023-07-29T01:18:23;4.20;;;3.20;;
48897;SDS011;34713;50.038;20.000;2023-07-29T01:20:58;6.30;;;3.50;;
48897;SDS011;34713;50.038;20.000;2023-07-29T01:23:26;5.70;;;3.60;;
48897;SDS011;34713;50.038;20.000;2023-07-29T01:26:16;5.50;;;3.60;;
48897;SDS011;34713;50.038;20.000;2023-07-29T01:36:21;5.90;;;4.00;;
48897;SDS011;34713;50.038;20.000;2023-07-29T01:39:15;6.50;;;3.70;;
48897;SDS011;34713;50.038;20.000;2023-07-29T01:41:40;5.40;;;3.70;;
48897;SDS011;34713;50.038;20.000;2023-07-29T01:44:13;3.90;;;3.20;;
48897;SDS011;34713;50.038;20.000;2023-07-29T01:49:40;5.50;;;3.10;;
48897;SDS011;34713;50.038;20.000;2023-07-29T01:52:37;4.70;;;3.30;;
48897;SDS011;34713;50.038;20.000;2023-07-29T01:55:25;5.30;;;3.30;;
48897;SDS011;34713;50.038;20.000;2023-07-29T01:58:09;7.90;;;4.00;;
48897;SDS011;34713;50.038;20.000;2023-07-29T02:00:39;6.10;;;2.90;;
48897;SDS011;34713;50.038;20.000;2023-07-29T02:03:06;5.40;;;3.30;;
48897;SDS011;34713;50.038;20.000;2023-07-29T02:05:42;6.80;;;3.10;;
48897;SDS011;34713;50.038;20.000;2023-07-29T02:08:18;5.20;;;3.00;;
48897;SDS011;34713;50.038;20.000;2023-07-29T02:10:45;5.20;;;3.50;;
48897;SDS011;34713;50.038;20.000;2023-07-29T02:13:15;5.60;;;3.00;;
48897;SDS011;34713;50.038;20.000;2023-07-29T02:15:51;4.90;;;3.10;;
48897;SDS011;34713;50.038;20.000;2023-07-29T02:18:44;5.90;;;3.10;;
48897;SDS011;34713;50.038;20.000;2023-07-29T02:21:18;5.40;;;3.20;;
48897;SDS011;34713;50.038;20.000;2023-07-29T02:23:54;5.80;;;3.90;;
48897;SDS011;34713;50.038;20.000;2023-07-29T02:26:22;4.40;;;3.00;;
48897;SDS011;34713;50.038;20.000;2023-07-29T02:28:49;6.40;;;3.40;;
48897;SDS011;34713;50.038;20.000;2023-07-29T02:31:17;7.40;;;3.10;;
48897;SDS011;34713;50.038;20.000;2023-07-29T02:33:44;7.60;;;3.60;;
48897;SDS011;34713;50.038;20.000;2023-07-29T02:36:11;4.70;;;2.90;;
48897;SDS011;34713;50.038;20.000;2023-07-29T02:38:39;6.60;;;3.60;;
48897;SDS011;34713;50.038;20.000;2023-07-29T02:41:06;5.40;;;3.10;;
48897;SDS011;34713;50.038;20.000;2023-07-29T02:43:38;6.10;;;3.10;;
48897;SDS011;34713;50.038;20.000;2023-07-29T02:46:05;7.50;;;3.10;;
48897;SDS011;34713;50.038;20.000;2023-07-29T02:48:31;5.30;;;3.40;;
48897;SDS011;34713;50.038;20.000;2023-07-29T02:50:58;4.60;;;3.20;;
48897;SDS011;34713;50.038;20.000;2023-07-29T02:53:25;7.20;;;3.30;;
48897;SDS011;34713;50.038;20.000;2023-07-29T02:55:51;5.50;;;3.60;;
48897;SDS011;34713;50.038;20.000;2023-07-29T02:58:18;9.50;;;3.30;;
48897;SDS011;34713;50.038;20.000;2023-07-29T03:00:44;4.90;;;3.10;;
48897;SDS011;34713;50.038;20.000;2023-07-29T03:03:11;5.60;;;3.40;;
48897;SDS011;34713;50.038;20.000;2023-07-29T03:05:38;6.00;;;3.40;;
48897;SDS011;34713;50.038;20.000;2023-07-29T03:08:04;6.10;;;3.40;;
48897;SDS011;34713;50.038;20.000;2023-07-29T03:10:34;7.90;;;3.70;;
48897;SDS011;34713;50.038;20.000;2023-07-29T03:13:01;7.10;;;3.30;;
48897;SDS011;34713;50.038;20.000;2023-07-29T03:15:29;6.90;;;4.10;;
48897;SDS011;34713;50.038;20.000;2023-07-29T03:17:55;7.40;;;3.90;;
48897;SDS011;34713;50.038;20.000;2023-07-29T03:20:22;8.20;;;3.90;;
48897;SDS011;34713;50.038;20.000;2023-07-29T03:22:48;9.00;;;4.20;;
48897;SDS011;34713;50.038;20.000;2023-07-29T03:25:15;6.80;;;3.90;;
48897;SDS011;34713;50.038;20.000;2023-07-29T03:27:42;7.30;;;3.60;;
48897;SDS011;34713;50.038;20.000;2023-07-29T03:30:09;5.90;;;3.60;;
48897;SDS011;34713;50.038;20.000;2023-07-29T03:32:37;7.20;;;3.70;;
48897;SDS011;34713;50.038;20.000;2023-07-29T03:35:05;7.60;;;4.50;;
48897;SDS011;34713;50.038;20.000;2023-07-29T03:37:32;15.00;;;4.80;;
48897;SDS011;34713;50.038;20.000;2023-07-29T03:39:59;7.00;;;4.70;;
48897;SDS011;34713;50.038;20.000;2023-07-29T03:42:25;8.20;;;4.40;;
48897;SDS011;34713;50.038;20.000;2023-07-29T03:44:52;7.90;;;4.60;;
48897;SDS011;34713;50.038;20.000;2023-07-29T03:47:18;8.00;;;4.70;;
48897;SDS011;34713;50.038;20.000;2023-07-29T03:49:45;7.20;;;4.70;;
48897;SDS011;34713;50.038;20.000;2023-07-29T03:52:12;6.80;;;4.30;;
48897;SDS011;34713;50.038;20.000;2023-07-29T03:54:38;7.60;;;5.00;;
48897;SDS011;34713;50.038;20.000;2023-07-29T03:57:05;8.20;;;4.90;;
48897;SDS011;34713;50.038;20.000;2023-07-29T03:59:32;7.70;;;4.50;;
48897;SDS011;34713;50.038;20.000;2023-07-29T04:01:58;6.30;;;4.40;;
48897;SDS011;34713;50.038;20.000;2023-07-29T04:04:25;8.60;;;4.70;;
48897;SDS011;34713;50.038;20.000;2023-07-29T04:06:52;10.70;;;4.90;;
48897;SDS011;34713;50.038;20.000;2023-07-29T04:09:19;7.70;;;4.70;;
48897;SDS011;34713;50.038;20.000;2023-07-29T04:11:46;8.40;;;4.80;;
48897;SDS011;34713;50.038;20.000;2023-07-29T04:14:12;6.50;;;4.20;;
48897;SDS011;34713;50.038;20.000;2023-07-29T04:16:39;7.70;;;4.30;;
48897;SDS011;34713;50.038;20.000;2023-07-29T04:19:05;6.90;;;4.30;;
48897;SDS011;34713;50.038;20.000;2023-07-29T04:21:32;12.00;;;5.00;;
48897;SDS011;34713;50.038;20.000;2023-07-29T04:23:59;9.40;;;5.90;;
48897;SDS011;34713;50.038;20.000;2023-07-29T04:26:25;7.40;;;4.60;;
48897;SDS011;34713;50.038;20.000;2023-07-29T04:28:52;6.40;;;4.50;;
48897;SDS011;34713;50.038;20.000;2023-07-29T04:31:18;6.00;;;4.00;;
48897;SDS011;34713;50.038;20.000;2023-07-29T04:33:45;6.50;;;3.70;;
48897;SDS011;34713;50.038;20.000;2023-07-29T04:36:12;6.20;;;3.90;;
48897;SDS011;34713;50.038;20.000;2023-07-29T04:38:39;8.30;;;4.00;;
48897;SDS011;34713;50.038;20.000;2023-07-29T04:41:06;5.70;;;4.20;;
48897;SDS011;34713;50.038;20.000;2023-07-29T04:43:35;5.10;;;3.50;;
48897;SDS011;34713;50.038;20.000;2023-07-29T04:46:02;7.20;;;3.50;;
48897;SDS011;34713;50.038;20.000;2023-07-29T04:48:29;4.90;;;3.40;;
48897;SDS011;34713;50.038;20.000;2023-07-29T04:50:56;8.20;;;4.10;;
48897;SDS011;34713;50.038;20.000;2023-07-29T04:53:22;6.10;;;3.20;;
48897;SDS011;34713;50.038;20.000;2023-07-29T04:55:49;5.90;;;3.50;;
48897;SDS011;34713;50.038;20.000;2023-07-29T04:58:15;7.80;;;3.60;;
48897;SDS011;34713;50.038;20.000;2023-07-29T05:00:42;5.70;;;3.40;;
48897;SDS011;34713;50.038;20.000;2023-07-29T05:03:09;5.80;;;3.40;;
48897;SDS011;34713;50.038;20.000;2023-07-29T05:05:36;5.10;;;2.90;;
48897;SDS011;34713;50.038;20.000;2023-07-29T05:08:03;6.60;;;3.00;;
48897;SDS011;34713;50.038;20.000;2023-07-29T05:10:29;4.50;;;3.20;;
48897;SDS011;34713;50.038;20.000;2023-07-29T05:12:56;3.50;;;2.80;;
48897;SDS011;34713;50.038;20.000;2023-07-29T05:15:23;4.40;;;2.90;;
48897;SDS011;34713;50.038;20.000;2023-07-29T05:17:50;8.70;;;3.40;;
48897;SDS011;34713;50.038;20.000;2023-07-29T05:20:17;5.60;;;3.20;;
48897;SDS011;34713;50.038;20.000;2023-07-29T05:22:43;4.00;;;2.40;;
48897;SDS011;34713;50.038;20.000;2023-07-29T05:25:10;3.80;;;2.80;;
48897;SDS011;34713;50.038;20.000;2023-07-29T05:27:37;6.10;;;3.10;;
48897;SDS011;34713;50.038;20.000;2023-07-29T05:30:04;4.20;;;2.90;;
48897;SDS011;34713;50.038;20.000;2023-07-29T05:32:31;4.70;;;3.00;;
48897;SDS011;34713;50.038;20.000;2023-07-29T05:34:57;4.40;;;3.10;;
48897;SDS011;34713;50.038;20.000;2023-07-29T05:37:24;4.90;;;3.00;;
48897;SDS011;34713;50.038;20.000;2023-07-29T05:39:50;4.40;;;2.80;;
48897;SDS011;34713;50.038;20.000;2023-07-29T05:42:17;4.10;;;2.60;;
48897;SDS011;34713;50.038;20.000;2023-07-29T05:44:43;3.70;;;2.50;;
48897;SDS011;34713;50.038;20.000;2023-07-29T05:47:10;3.90;;;2.50;;
48897;SDS011;34713;50.038;20.000;2023-07-29T05:49:37;4.30;;;2.10;;
48897;SDS011;34713;50.038;20.000;2023-07-29T05:52:03;3.40;;;2.10;;
48897;SDS011;34713;50.038;20.000;2023-07-29T05:54:30;5.00;;;2.10;;
48897;SDS011;34713;50.038;20.000;2023-07-29T05:56:57;1.90;;;1.70;;
48897;SDS011;34713;50.038;20.000;2023-07-29T05:59:23;6.00;;;2.20;;
48897;SDS011;34713;50.038;20.000;2023-07-29T06:01:50;2.60;;;2.10;;
48897;SDS011;34713;50.038;20.000;2023-07-29T06:04:17;5.00;;;2.00;;
48897;SDS011;34713;50.038;20.000;2023-07-29T06:06:44;5.10;;;1.80;;
48897;SDS011;34713;50.038;20.000;2023-07-29T06:09:10;4.40;;;2.10;;
48897;SDS011;34713;50.038;20.000;2023-07-29T06:11:37;3.00;;;2.00;;
48897;SDS011;34713;50.038;20.000;2023-07-29T06:14:04;3.10;;;1.80;;
48897;SDS011;34713;50.038;20.000;2023-07-29T06:16:30;2.50;;;1.50;;
48897;SDS011;34713;50.038;20.000;2023-07-29T06:18:57;5.00;;;1.70;;
48897;SDS011;34713;50.038;20.000;2023-07-29T06:21:23;2.80;;;1.50;;
48897;SDS011;34713;50.038;20.000;2023-07-29T06:23:50;4.70;;;1.50;;
48897;SDS011;34713;50.038;20.000;2023-07-29T06:26:17;3.50;;;1.60;;
48897;SDS011;34713;50.038;20.000;2023-07-29T06:28:43;1.50;;;1.40;;
48897;SDS011;34713;50.038;20.000;2023-07-29T06:31:10;1.60;;;1.40;;
48897;SDS011;34713;50.038;20.000;2023-07-29T06:33:37;5.00;;;1.90;;
48897;SDS011;34713;50.038;20.000;2023-07-29T06:36:04;2.70;;;1.30;;
48897;SDS011;34713;50.038;20.000;2023-07-29T06:38:31;2.00;;;1.40;;
48897;SDS011;34713;50.038;20.000;2023-07-29T06:40:57;2.80;;;1.80;;
48897;SDS011;34713;50.038;20.000;2023-07-29T06:43:24;3.10;;;1.90;;
48897;SDS011;34713;50.038;20.000;2023-07-29T06:45:51;3.50;;;1.90;;
48897;SDS011;34713;50.038;20.000;2023-07-29T06:48:18;2.80;;;1.70;;
48897;SDS011;34713;50.038;20.000;2023-07-29T06:50:46;2.20;;;1.60;;
48897;SDS011;34713;50.038;20.000;2023-07-29T06:53:12;2.00;;;1.30;;
48897;SDS011;34713;50.038;20.000;2023-07-29T06:55:39;1.70;;;1.50;;
48897;SDS011;34713;50.038;20.000;2023-07-29T06:58:06;2.80;;;1.80;;
48897;SDS011;34713;50.038;20.000;2023-07-29T07:00:33;2.60;;;1.70;;
48897;SDS011;34713;50.038;20.000;2023-07-29T07:02:59;3.30;;;1.50;;
48897;SDS011;34713;50.038;20.000;2023-07-29T07:05:26;2.90;;;1.60;;
48897;SDS011;34713;50.038;20.000;2023-07-29T07:07:53;3.70;;;1.80;;
48897;SDS011;34713;50.038;20.000;2023-07-29T07:10:19;1.80;;;1.60;;
48897;SDS011;34713;50.038;20.000;2023-07-29T07:12:46;3.40;;;1.50;;
48897;SDS011;34713;50.038;20.000;2023-07-29T07:15:13;2.20;;;1.70;;
48897;SDS011;34713;50.038;20.000;2023-07-29T07:17:42;2.30;;;1.80;;
48897;SDS011;34713;50.038;20.000;2023-07-29T07:20:09;2.60;;;1.70;;
48897;SDS011;34713;50.038;20.000;2023-07-29T07:22:36;1.70;;;1.60;;
48897;SDS011;34713;50.038;20.000;2023-07-29T07:25:03;3.00;;;1.80;;
48897;SDS011;34713;50.038;20.000;2023-07-29T07:27:30;1.80;;;1.70;;
48897;SDS011;34713;50.038;20.000;2023-07-29T07:29:57;1.80;;;1.70;;
48897;SDS011;34713;50.038;20.000;2023-07-29T07:32:23;2.40;;;1.80;;
48897;SDS011;34713;50.038;20.000;2023-07-29T07:34:50;2.30;;;1.70;;
48897;SDS011;34713;50.038;20.000;2023-07-29T07:37:24;3.10;;;1.70;;
48897;SDS011;34713;50.038;20.000;2023-07-29T07:39:51;2.00;;;1.60;;
48897;SDS011;34713;50.038;20.000;2023-07-29T07:42:18;3.40;;;1.50;;
48897;SDS011;34713;50.038;20.000;2023-07-29T07:44:45;1.90;;;1.40;;
48897;SDS011;34713;50.038;20.000;2023-07-29T07:47:11;2.30;;;1.50;;
48897;SDS011;34713;50.038;20.000;2023-07-29T07:49:38;1.50;;;1.20;;
48897;SDS011;34713;50.038;20.000;2023-07-29T07:52:05;2.00;;;1.10;;
48897;SDS011;34713;50.038;20.000;2023-07-29T07:54:32;2.50;;;0.80;;
48897;SDS011;34713;50.038;20.000;2023-07-29T07:56:58;2.10;;;1.00;;
48897;SDS011;34713;50.038;20.000;2023-07-29T07:59:25;0.80;;;0.70;;
48897;SDS011;34713;50.038;20.000;2023-07-29T08:01:51;2.70;;;1.00;;
48897;SDS011;34713;50.038;20.000;2023-07-29T08:04:18;2.00;;;0.90;;
48897;SDS011;34713;50.038;20.000;2023-07-29T08:06:48;2.50;;;0.90;;
48897;SDS011;34713;50.038;20.000;2023-07-29T08:09:14;1.60;;;0.70;;
48897;SDS011;34713;50.038;20.000;2023-07-29T08:11:41;0.80;;;0.60;;
48897;SDS011;34713;50.038;20.000;2023-07-29T08:14:07;1.40;;;0.70;;
48897;SDS011;34713;50.038;20.000;2023-07-29T08:16:34;3.20;;;1.10;;
48897;SDS011;34713;50.038;20.000;2023-07-29T08:19:01;1.50;;;0.90;;
48897;SDS011;34713;50.038;20.000;2023-07-29T08:21:27;1.50;;;1.00;;
48897;SDS011;34713;50.038;20.000;2023-07-29T08:24:03;1.30;;;1.10;;
48897;SDS011;34713;50.038;20.000;2023-07-29T08:26:30;1.60;;;1.00;;
48897;SDS011;34713;50.038;20.000;2023-07-29T08:28:56;2.70;;;1.10;;
48897;SDS011;34713;50.038;20.000;2023-07-29T08:31:23;1.50;;;1.00;;
48897;SDS011;34713;50.038;20.000;2023-07-29T08:33:50;2.20;;;1.20;;
48897;SDS011;34713;50.038;20.000;2023-07-29T08:36:17;1.80;;;0.90;;
48897;SDS011;34713;50.038;20.000;2023-07-29T08:38:43;1.30;;;0.90;;
48897;SDS011;34713;50.038;20.000;2023-07-29T08:41:12;1.70;;;1.10;;
48897;SDS011;34713;50.038;20.000;2023-07-29T08:43:43;1.50;;;1.00;;
48897;SDS011;34713;50.038;20.000;2023-07-29T08:46:12;2.90;;;1.00;;
48897;SDS011;34713;50.038;20.000;2023-07-29T08:48:40;3.70;;;1.20;;
48897;SDS011;34713;50.038;20.000;2023-07-29T08:51:08;1.60;;;0.80;;
48897;SDS011;34713;50.038;20.000;2023-07-29T08:53:36;1.90;;;0.90;;
48897;SDS011;34713;50.038;20.000;2023-07-29T08:56:04;2.00;;;1.10;;
48897;SDS011;34713;50.038;20.000;2023-07-29T08:58:31;1.50;;;1.00;;
48897;SDS011;34713;50.038;20.000;2023-07-29T09:00:59;1.50;;;1.10;;
48897;SDS011;34713;50.038;20.000;2023-07-29T09:03:26;1.60;;;1.10;;
48897;SDS011;34713;50.038;20.000;2023-07-29T09:05:53;1.60;;;1.20;;
48897;SDS011;34713;50.038;20.000;2023-07-29T09:08:21;1.80;;;1.10;;
48897;SDS011;34713;50.038;20.000;2023-07-29T09:10:47;2.20;;;0.80;;
48897;SDS011;34713;50.038;20.000;2023-07-29T09:13:14;1.40;;;1.00;;
48897;SDS011;34713;50.038;20.000;2023-07-29T09:15:41;1.50;;;0.90;;
48897;SDS011;34713;50.038;20.000;2023-07-29T09:18:12;3.80;;;1.40;;
48897;SDS011;34713;50.038;20.000;2023-07-29T09:20:42;2.30;;;1.00;;
48897;SDS011;34713;50.038;20.000;2023-07-29T09:23:10;2.20;;;1.10;;
48897;SDS011;34713;50.038;20.000;2023-07-29T09:25:37;1.20;;;0.80;;
48897;SDS011;34713;50.038;20.000;2023-07-29T09:28:12;2.40;;;0.80;;
48897;SDS011;34713;50.038;20.000;2023-07-29T09:30:40;2.90;;;0.90;;
48897;SDS011;34713;50.038;20.000;2023-07-29T09:33:11;1.00;;;0.90;;
48897;SDS011;34713;50.038;20.000;2023-07-29T09:35:38;3.10;;;1.00;;
48897;SDS011;34713;50.038;20.000;2023-07-29T09:38:05;1.10;;;0.90;;
48897;SDS011;34713;50.038;20.000;2023-07-29T09:43:07;1.40;;;1.00;;
48897;SDS011;34713;50.038;20.000;2023-07-29T09:45:36;2.10;;;1.00;;
48897;SDS011;34713;50.038;20.000;2023-07-29T09:48:03;1.60;;;1.20;;
48897;SDS011;34713;50.038;20.000;2023-07-29T09:50:36;2.60;;;1.30;;
48897;SDS011;34713;50.038;20.000;2023-07-29T09:53:03;1.20;;;1.00;;
48897;SDS011;34713;50.038;20.000;2023-07-29T09:55:32;1.20;;;1.00;;
48897;SDS011;34713;50.038;20.000;2023-07-29T09:58:00;1.40;;;0.90;;
48897;SDS011;34713;50.038;20.000;2023-07-29T10:00:29;2.20;;;0.90;;
48897;SDS011;34713;50.038;20.000;2023-07-29T10:02:57;1.40;;;0.70;;
48897;SDS011;34713;50.038;20.000;2023-07-29T10:05:25;1.00;;;0.70;;
48897;SDS011;34713;50.038;20.000;2023-07-29T10:07:53;1.30;;;0.70;;
48897;SDS011;34713;50.038;20.000;2023-07-29T10:10:21;1.30;;;0.90;;
48897;SDS011;34713;50.038;20.000;2023-07-29T10:12:48;1.60;;;0.80;;
48897;SDS011;34713;50.038;20.000;2023-07-29T10:15:16;0.70;;;0.60;;
48897;SDS011;34713;50.038;20.000;2023-07-29T10:17:43;1.80;;;0.90;;
48897;SDS011;34713;50.038;20.000;2023-07-29T10:20:12;1.50;;;0.90;;
48897;SDS011;34713;50.038;20.000;2023-07-29T10:22:39;1.50;;;0.80;;
48897;SDS011;34713;50.038;20.000;2023-07-29T10:25:08;1.50;;;0.90;;
48897;SDS011;34713;50.038;20.000;2023-07-29T10:27:45;1.80;;;0.70;;
48897;SDS011;34713;50.038;20.000;2023-07-29T10:30:15;1.50;;;0.80;;
48897;SDS011;34713;50.038;20.000;2023-07-29T10:32:42;1.00;;;0.80;;
48897;SDS011;34713;50.038;20.000;2023-07-29T10:35:12;0.60;;;0.60;;
48897;SDS011;34713;50.038;20.000;2023-07-29T10:37:39;3.80;;;0.70;;
48897;SDS011;34713;50.038;20.000;2023-07-29T10:40:10;3.20;;;0.80;;
48897;SDS011;34713;50.038;20.000;2023-07-29T10:42:38;2.80;;;0.90;;
48897;SDS011;34713;50.038;20.000;2023-07-29T10:45:18;1.90;;;1.10;;
48897;SDS011;34713;50.038;20.000;2023-07-29T10:47:47;3.60;;;1.40;;
48897;SDS011;34713;50.038;20.000;2023-07-29T10:50:17;1.70;;;0.90;;
48897;SDS011;34713;50.038;20.000;2023-07-29T10:52:48;5.40;;;1.90;;
48897;SDS011;34713;50.038;20.000;2023-07-29T10:58:07;5.20;;;1.60;;
48897;SDS011;34713;50.038;20.000;2023-07-29T11:00:35;4.20;;;1.50;;
48897;SDS011;34713;50.038;20.000;2023-07-29T11:03:02;7.90;;;1.60;;
48897;SDS011;34713;50.038;20.000;2023-07-29T11:05:50;3.30;;;1.40;;
48897;SDS011;34713;50.038;20.000;2023-07-29T11:08:18;4.60;;;1.50;;
48897;SDS011;34713;50.038;20.000;2023-07-29T11:13:27;4.60;;;1.60;;
48897;SDS011;34713;50.038;20.000;2023-07-29T11:15:55;3.10;;;1.30;;
48897;SDS011;34713;50.038;20.000;2023-07-29T11:18:26;3.50;;;1.50;;
48897;SDS011;34713;50.038;20.000;2023-07-29T11:21:01;5.60;;;1.40;;
48897;SDS011;34713;50.038;20.000;2023-07-29T11:23:30;3.20;;;1.10;;
48897;SDS011;34713;50.038;20.000;2023-07-29T11:25:58;3.90;;;1.10;;
48897;SDS011;34713;50.038;20.000;2023-07-29T11:28:25;4.20;;;1.20;;
48897;SDS011;34713;50.038;20.000;2023-07-29T11:30:53;1.30;;;1.10;;
48897;SDS011;34713;50.038;20.000;2023-07-29T11:33:24;1.50;;;0.90;;
48897;SDS011;34713;50.038;20.000;2023-07-29T11:35:52;1.50;;;0.90;;
48897;SDS011;34713;50.038;20.000;2023-07-29T11:38:19;2.20;;;1.00;;
48897;SDS011;34713;50.038;20.000;2023-07-29T11:40:56;1.50;;;1.10;;
48897;SDS011;34713;50.038;20.000;2023-07-29T11:43:25;1.10;;;0.80;;
48897;SDS011;34713;50.038;20.000;2023-07-29T11:45:53;2.30;;;1.00;;
48897;SDS011;34713;50.038;20.000;2023-07-29T11:48:38;1.50;;;1.00;;
48897;SDS011;34713;50.038;20.000;2023-07-29T11:51:04;1.80;;;0.80;;
48897;SDS011;34713;50.038;20.000;2023-07-29T11:53:34;3.00;;;1.60;;
48897;SDS011;34713;50.038;20.000;2023-07-29T11:56:01;1.50;;;0.90;;
48897;SDS011;34713;50.038;20.000;2023-07-29T11:58:30;2.20;;;0.90;;
48897;SDS011;34713;50.038;20.000;2023-07-29T12:00:56;1.30;;;0.90;;
48897;SDS011;34713;50.038;20.000;2023-07-29T12:03:23;2.30;;;0.80;;
48897;SDS011;34713;50.038;20.000;2023-07-29T12:05:50;2.30;;;1.00;;
48897;SDS011;34713;50.038;20.000;2023-07-29T12:08:17;2.00;;;0.70;;
48897;SDS011;34713;50.038;20.000;2023-07-29T12:10:44;1.50;;;0.80;;
48897;SDS011;34713;50.038;20.000;2023-07-29T12:13:10;1.20;;;0.80;;
48897;SDS011;34713;50.038;20.000;2023-07-29T12:15:37;2.90;;;0.90;;
48897;SDS011;34713;50.038;20.000;2023-07-29T12:18:05;1.20;;;1.00;;
48897;SDS011;34713;50.038;20.000;2023-07-29T12:20:32;3.30;;;1.10;;
48897;SDS011;34713;50.038;20.000;2023-07-29T12:22:59;1.30;;;1.00;;
48897;SDS011;34713;50.038;20.000;2023-07-29T12:25:31;3.20;;;1.40;;
48897;SDS011;34713;50.038;20.000;2023-07-29T12:28:02;2.30;;;1.20;;
48897;SDS011;34713;50.038;20.000;2023-07-29T12:30:31;2.20;;;1.00;;
48897;SDS011;34713;50.038;20.000;2023-07-29T12:32:58;8.70;;;2.10;;
48897;SDS011;34713;50.038;20.000;2023-07-29T12:35:33;1.90;;;1.10;;
48897;SDS011;34713;50.038;20.000;2023-07-29T12:49:07;4.90;;;1.60;;
48897;SDS011;34713;50.038;20.000;2023-07-29T12:51:34;1.90;;;1.30;;
48897;SDS011;34713;50.038;20.000;2023-07-29T12:54:05;1.40;;;1.10;;
48897;SDS011;34713;50.038;20.000;2023-07-29T12:56:32;1.60;;;1.10;;
48897;SDS011;34713;50.038;20.000;2023-07-29T12:59:00;1.60;;;1.10;;
48897;SDS011;34713;50.038;20.000;2023-07-29T13:01:27;1.80;;;1.40;;
48897;SDS011;34713;50.038;20.000;2023-07-29T13:03:54;1.80;;;1.30;;
48897;SDS011;34713;50.038;20.000;2023-07-29T13:06:22;3.70;;;1.20;;
48897;SDS011;34713;50.038;20.000;2023-07-29T13:08:49;2.30;;;1.30;;
48897;SDS011;34713;50.038;20.000;2023-07-29T13:11:16;2.00;;;1.40;;
48897;SDS011;34713;50.038;20.000;2023-07-29T13:13:43;2.10;;;1.30;;
48897;SDS011;34713;50.038;20.000;2023-07-29T13:16:12;2.80;;;1.30;;
48897;SDS011;34713;50.038;20.000;2023-07-29T13:18:39;1.90;;;1.10;;
48897;SDS011;34713;50.038;20.000;2023-07-29T13:21:07;1.30;;;1.10;;
48897;SDS011;34713;50.038;20.000;2023-07-29T13:23:34;1.40;;;1.20;;
48897;SDS011;34713;50.038;20.000;2023-07-29T13:26:00;19.70;;;4.20;;
48897;SDS011;34713;50.038;20.000;2023-07-29T13:28:27;3.40;;;1.60;;
48897;SDS011;34713;50.038;20.000;2023-07-29T13:30:54;3.60;;;1.20;;
48897;SDS011;34713;50.038;20.000;2023-07-29T13:33:20;4.30;;;1.20;;
48897;SDS011;34713;50.038;20.000;2023-07-29T13:35:47;1.40;;;1.10;;
48897;SDS011;34713;50.038;20.000;2023-07-29T13:38:14;2.10;;;1.00;;
48897;SDS011;34713;50.038;20.000;2023-07-29T13:40:40;3.70;;;1.10;;
48897;SDS011;34713;50.038;20.000;2023-07-29T13:43:07;2.30;;;1.10;;
48897;SDS011;34713;50.038;20.000;2023-07-29T13:45:34;1.40;;;1.10;;
48897;SDS011;34713;50.038;20.000;2023-07-29T13:48:01;1.70;;;1.30;;
48897;SDS011;34713;50.038;20.000;2023-07-29T13:50:28;2.20;;;1.20;;
48897;SDS011;34713;50.038;20.000;2023-07-29T13:52:55;3.00;;;1.20;;
48897;SDS011;34713;50.038;20.000;2023-07-29T13:55:21;3.20;;;1.20;;
48897;SDS011;34713;50.038;20.000;2023-07-29T13:57:51;1.40;;;1.00;;
48897;SDS011;34713;50.038;20.000;2023-07-29T14:00:19;1.40;;;1.20;;
48897;SDS011;34713;50.038;20.000;2023-07-29T14:02:46;1.60;;;1.10;;
48897;SDS011;34713;50.038;20.000;2023-07-29T14:05:13;1.90;;;1.20;;
48897;SDS011;34713;50.038;20.000;2023-07-29T14:07:40;3.40;;;1.00;;
48897;SDS011;34713;50.038;20.000;2023-07-29T14:10:07;1.30;;;1.10;;
48897;SDS011;34713;50.038;20.000;2023-07-29T14:12:34;1.80;;;1.30;;
48897;SDS011;34713;50.038;20.000;2023-07-29T14:15:01;5.40;;;1.20;;
48897;SDS011;34713;50.038;20.000;2023-07-29T14:17:27;2.30;;;1.40;;
48897;SDS011;34713;50.038;20.000;2023-07-29T14:19:54;3.20;;;1.20;;
48897;SDS011;34713;50.038;20.000;2023-07-29T14:22:21;1.80;;;1.00;;
48897;SDS011;34713;50.038;20.000;2023-07-29T14:24:48;2.90;;;1.10;;
48897;SDS011;34713;50.038;20.000;2023-07-29T14:27:17;3.00;;;1.40;;
48897;SDS011;34713;50.038;20.000;2023-07-29T14:29:44;3.00;;;1.10;;
48897;SDS011;34713;50.038;20.000;2023-07-29T14:32:11;2.50;;;1.30;;
48897;SDS011;34713;50.038;20.000;2023-07-29T14:34:38;3.30;;;1.60;;
48897;SDS011;34713;50.038;20.000;2023-07-29T14:37:05;6.20;;;2.20;;
48897;SDS011;34713;50.038;20.000;2023-07-29T14:39:31;5.00;;;1.80;;
48897;SDS011;34713;50.038;20.000;2023-07-29T14:42:05;2.20;;;1.50;;
48897;SDS011;34713;50.038;20.000;2023-07-29T14:44:34;2.80;;;1.40;;
48897;SDS011;34713;50.038;20.000;2023-07-29T14:47:00;2.70;;;1.40;;
48897;SDS011;34713;50.038;20.000;2023-07-29T14:49:27;3.50;;;1.70;;
48897;SDS011;34713;50.038;20.000;2023-07-29T14:51:53;2.10;;;1.40;;
48897;SDS011;34713;50.038;20.000;2023-07-29T14:54:21;2.10;;;1.50;;
48897;SDS011;34713;50.038;20.000;2023-07-29T14:56:48;2.20;;;1.30;;
48897;SDS011;34713;50.038;20.000;2023-07-29T14:59:15;2.70;;;1.50;;
48897;SDS011;34713;50.038;20.000;2023-07-29T15:01:41;1.90;;;1.50;;
48897;SDS011;34713;50.038;20.000;2023-07-29T15:04:08;3.80;;;1.60;;
48897;SDS011;34713;50.038;20.000;2023-07-29T15:09:24;1.80;;;1.30;;
48897;SDS011;34713;50.038;20.000;2023-07-29T15:11:51;2.40;;;1.30;;
48897;SDS011;34713;50.038;20.000;2023-07-29T15:14:17;3.00;;;1.40;;
48897;SDS011;34713;50.038;20.000;2023-07-29T15:16:44;2.10;;;1.40;;
48897;SDS011;34713;50.038;20.000;2023-07-29T15:19:11;1.70;;;1.20;;
48897;SDS011;34713;50.038;20.000;2023-07-29T15:21:38;1.50;;;1.20;;
48897;SDS011;34713;50.038;20.000;2023-07-29T15:24:04;1.70;;;1.10;;
48897;SDS011;34713;50.038;20.000;2023-07-29T15:26:31;4.30;;;0.90;;
48897;SDS011;34713;50.038;20.000;2023-07-29T15:28:59;2.40;;;1.20;;
48897;SDS011;34713;50.038;20.000;2023-07-29T15:31:26;2.20;;;1.30;;
48897;SDS011;34713;50.038;20.000;2023-07-29T15:33:53;2.20;;;1.00;;